Time;durP1;ratioP1;P1;durP2;ratioP2;P2;SDS_P1;SDS_P2;PMS_P1;PMS_P2;Temp;Humidity;BMP_temperature;BMP_pressure;BME280_temperature;BME280_humidity;BME280_pressure;Samples;Min_cycle;Max_cycle;Signal;HPM_P1;HPM_P2
2022/08/03 00:01:01;;;;;;;8.45;6.97;;;;;;;21.34;81.63;99431.64;1679178;83;20998;-59
2022/08/03 00:03:28;;;;;;;10.45;7.15;;;;;;;21.38;81.73;99433.55;1680680;83;21814;-59
2022/08/03 00:05:55;;;;;;;7.30;6.60;;;;;;;21.42;81.53;99431.41;1678061;84;21479;-59
2022/08/03 00:08:21;;;;;;;9.40;6.90;;;;;;;21.44;81.52;99429.47;1677740;84;20959;-59
2022/08/03 00:10:48;;;;;;;7.97;7.10;;;;;;;21.47;81.47;99426.53;1671726;84;21030;-59
2022/08/03 00:13:15;;;;;;;8.23;7.05;;;;;;;21.49;81.33;99421.87;1675244;83;21555;-59
2022/08/03 00:15:42;;;;;;;7.75;6.92;;;;;;;21.68;81.31;99429.92;1671623;83;21770;-59
2022/08/03 00:18:08;;;;;;;10.15;7.25;;;;;;;21.61;80.56;99419.42;1680535;83;21433;-62
2022/08/03 00:20:35;;;;;;;8.18;7.58;;;;;;;21.56;81.09;99423.02;1678548;84;21066;-59
2022/08/03 00:23:03;;;;;;;9.53;7.87;;;;;;;21.60;80.87;99414.22;1680490;83;21577;-59
2022/08/03 00:25:30;;;;;;;8.00;7.12;;;;;;;21.62;80.77;99415.75;1680467;84;21561;-59
2022/08/03 00:27:56;;;;;;;7.90;6.90;;;;;;;21.66;80.34;99421.19;1677111;83;22244;-59
2022/08/03 00:30:23;;;;;;;8.08;7.35;;;;;;;21.80;79.52;99411.03;1682113;84;21454;-59
2022/08/03 00:32:49;;;;;;;8.05;7.15;;;;;;;21.80;79.52;99411.03;1675966;83;21626;-59
2022/08/03 00:35:16;;;;;;;10.75;6.87;;;;;;;21.76;79.57;99416.66;1674826;84;21476;-59
2022/08/03 00:37:43;;;;;;;9.25;7.95;;;;;;;21.50;80.48;99414.22;1678754;83;21432;-59
2022/08/03 00:40:11;;;;;;;9.03;7.33;;;;;;;21.52;80.92;99421.61;1675539;83;21818;-61
2022/08/03 00:42:57;;;;;;;7.62;7.00;;;;;;;21.51;81.11;99416.77;1680058;84;21546;-59
2022/08/03 00:45:33;;;;;;;8.75;7.20;;;;;;;21.58;81.06;99421.03;1679812;83;21130;-60
2022/08/03 00:48:00;;;;;;;9.20;7.40;;;;;;;21.63;80.68;99415.28;1682492;84;21501;-60
2022/08/03 00:50:29;;;;;;;8.40;7.60;;;;;;;21.63;80.68;99415.28;1680553;83;21527;-62
2022/08/03 00:52:57;;;;;;;9.33;7.55;;;;;;;21.47;81.08;99417.17;1670093;84;21506;-60
2022/08/03 00:55:24;;;;;;;11.60;7.55;;;;;;;21.46;81.32;99425.69;1673343;83;21569;-60
2022/08/03 00:57:51;;;;;;;8.10;7.40;;;;;;;21.54;81.24;99427.66;1662151;84;21444;-60
2022/08/03 01:00:26;;;;;;;7.30;6.37;;;;;;;21.50;81.38;99424.92;1662716;85;21453;-60
2022/08/03 01:02:53;;;;;;;8.75;7.72;;;;;;;21.53;81.42;99420.61;1659946;85;21498;-60
2022/08/03 01:05:19;;;;;;;11.35;7.28;;;;;;;21.53;81.36;99413.92;1664572;85;21846;-60
2022/08/03 01:08:23;;;;;;;8.23;7.53;;;;;;;21.53;81.36;99413.92;1669101;85;21016;-59
2022/08/03 01:11:19;;;;;;;8.40;7.67;;;;;;;21.51;81.41;99417.23;1668435;85;21516;-61
2022/08/03 01:14:03;;;;;;;9.10;7.83;;;;;;;21.55;81.18;99413.31;1666653;85;21437;-59
2022/08/03 01:16:38;;;;;;;9.20;7.15;;;;;;;21.65;80.78;99407.95;1664434;85;21428;-60
2022/08/03 01:19:35;;;;;;;11.15;7.75;;;;;;;21.63;80.62;99415.28;1657217;85;21796;-60
2022/08/03 01:22:27;;;;;;;14.00;8.05;;;;;;;21.54;80.90;99425.82;1657226;85;21492;-60
2022/08/03 01:25:25;;;;;;;9.68;7.58;;;;;;;21.51;80.93;99419.91;1657058;84;21574;-60
2022/08/03 01:28:48;;;;;;;9.55;7.15;;;;;;;21.46;80.62;99428.37;1658968;84;21402;-60
2022/08/03 01:31:17;;;;;;;8.45;7.50;;;;;;;21.46;80.62;99428.37;1665963;85;21547;-60
2022/08/03 01:33:49;;;;;;;11.45;8.23;;;;;;;21.44;81.22;99429.47;1663526;85;21960;-59
2022/08/03 01:36:20;;;;;;;10.65;8.10;;;;;;;21.38;81.27;99427.70;1661732;85;21602;-59
2022/08/03 01:39:01;;;;;;;10.82;8.23;;;;;;;21.47;81.23;99428.70;1665152;84;20988;-59
2022/08/03 01:41:33;;;;;;;11.65;8.08;;;;;;;21.54;81.03;99433.01;1665598;85;21532;-59
2022/08/03 01:44:01;;;;;;;8.48;7.75;;;;;;;21.58;80.56;99433.08;1665363;85;21551;-59
2022/08/03 01:46:28;;;;;;;12.15;7.42;;;;;;;21.51;80.79;99430.13;1667219;84;21718;-59
2022/08/03 01:48:55;;;;;;;11.93;7.95;;;;;;;21.46;81.10;99431.54;1661673;85;21495;-59
2022/08/03 01:51:22;;;;;;;10.82;7.62;;;;;;;21.46;81.45;99431.54;1667579;85;21582;-58
2022/08/03 01:53:50;;;;;;;12.98;7.53;;;;;;;21.49;81.19;99432.58;1660160;85;21048;-59
2022/08/03 01:56:17;;;;;;;9.78;8.05;;;;;;;21.53;81.05;99428.63;1673097;83;21535;-59
2022/08/03 01:58:44;;;;;;;9.58;7.35;;;;;;;21.53;81.05;99428.63;1681753;84;22010;-59
2022/08/03 02:01:12;;;;;;;9.98;7.53;;;;;;;21.52;81.27;99426.95;1676559;83;21431;-60
2022/08/03 02:03:41;;;;;;;8.63;7.80;;;;;;;21.56;81.13;99424.34;1674498;84;21541;-59
2022/08/03 02:06:09;;;;;;;10.15;7.78;;;;;;;21.53;80.71;99425.48;1683197;84;21556;-59
2022/08/03 02:08:37;;;;;;;8.33;7.53;;;;;;;21.53;80.71;99425.48;1674969;84;21010;-59
2022/08/03 02:11:04;;;;;;;8.53;7.50;;;;;;;21.53;81.00;99419.27;1667766;83;21737;-59
2022/08/03 02:13:32;;;;;;;8.65;7.70;;;;;;;21.60;80.96;99420.90;1681107;84;21437;-59
2022/08/03 02:15:58;;;;;;;;;;;;;;;21.60;80.96;99420.90;1664676;84;21435;-59
2022/08/03 02:18:25;;;;;;;12.68;7.53;;;;;;;21.59;80.84;99421.41;1680110;83;20523;-59
2022/08/03 02:20:51;;;;;;;14.73;7.95;;;;;;;21.54;80.85;99420.47;1679042;84;21416;-58
2022/08/03 02:23:18;;;;;;;11.08;8.13;;;;;;;21.54;80.80;99415.63;1678599;84;21557;-58
2022/08/03 02:25:48;;;;;;;9.05;8.25;;;;;;;21.58;80.81;99424.55;1683272;83;21073;-59
2022/08/03 02:28:21;;;;;;;12.40;7.58;;;;;;;21.51;80.77;99424.78;1673093;83;21621;-59
2022/08/03 02:30:51;;;;;;;9.78;8.33;;;;;;;21.51;81.00;99429.27;1675535;84;21680;-58
2022/08/03 02:33:25;;;;;;;13.58;8.18;;;;;;;21.51;81.00;99429.27;1675868;84;21687;-59
2022/08/03 02:35:52;;;;;;;10.00;7.85;;;;;;;21.56;80.91;99431.88;1682360;83;21838;-60
2022/08/03 02:38:20;;;;;;;10.70;8.10;;;;;;;21.55;80.83;99430.70;1675837;83;21164;-59
2022/08/03 02:40:47;;;;;;;13.48;7.83;;;;;;;21.55;80.67;99423.52;1678015;83;21526;-58
2022/08/03 02:43:17;;;;;;;8.15;7.45;;;;;;;21.58;80.41;99425.05;1659871;84;21531;-59
2022/08/03 02:45:45;;;;;;;8.83;7.12;;;;;;;21.58;80.41;99425.05;1675919;83;21443;-59
2022/08/03 02:48:22;;;;;;;10.65;7.22;;;;;;;21.54;80.78;99423.65;1672407;83;21810;-59
2022/08/03 02:50:51;;;;;;;10.63;7.58;;;;;;;21.54;81.06;99423.14;1675081;84;21551;-58
2022/08/03 02:53:18;;;;;;;8.00;7.03;;;;;;;21.52;81.06;99426.95;1678134;84;21518;-59
2022/08/03 02:55:46;;;;;;;16.07;7.78;;;;;;;21.52;81.06;99426.95;1682093;84;21583;-58
2022/08/03 02:58:13;;;;;;;13.65;7.47;;;;;;;21.53;80.65;99425.48;1652228;85;21025;-59
2022/08/03 03:00:39;;;;;;;9.68;7.45;;;;;;;21.52;80.54;99421.61;1647480;86;21823;-59
2022/08/03 03:03:07;;;;;;;20.15;7.83;;;;;;;21.47;80.64;99420.67;1646071;85;21570;-59
2022/08/03 03:05:33;;;;;;;11.15;7.30;;;;;;;21.45;80.55;99419.14;1651852;86;21439;-58
2022/08/03 03:08:00;;;;;;;9.48;7.83;;;;;;;21.45;80.63;99426.66;1645995;84;21033;-58
2022/08/03 03:10:27;;;;;;;12.37;7.25;;;;;;;21.49;80.52;99427.23;1639470;85;21585;-59
2022/08/03 03:12:56;;;;;;;15.13;8.25;;;;;;;21.49;80.52;99427.23;1652125;85;22026;-59
2022/08/03 03:15:24;;;;;;;13.58;7.75;;;;;;;21.44;80.79;99429.47;1648987;86;21595;-59
2022/08/03 03:17:51;;;;;;;9.38;7.33;;;;;;;21.42;80.89;99437.63;1655924;85;21480;-60
2022/08/03 03:20:18;;;;;;;8.75;7.33;;;;;;;21.47;80.90;99430.54;1642221;85;21556;-59
2022/08/03 03:22:44;;;;;;;11.28;7.47;;;;;;;21.47;80.90;99430.54;1651982;85;21603;-58
2022/08/03 03:25:11;;;;;;;10.35;8.30;;;;;;;21.46;80.87;99434.22;1650618;84;21757;-59
2022/08/03 03:27:38;;;;;;;9.33;8.00;;;;;;;21.49;80.58;99443.28;1635009;85;21543;-59
2022/08/03 03:30:06;;;;;;;9.38;7.72;;;;;;;21.50;80.94;99438.30;1649519;85;21582;-60
2022/08/03 03:32:35;;;;;;;9.28;7.35;;;;;;;21.55;80.87;99445.41;1651121;85;21464;-59
2022/08/03 03:35:02;;;;;;;13.03;7.97;;;;;;;21.63;80.49;99445.54;1651855;85;21577;-58
2022/08/03 03:37:28;;;;;;;11.05;8.13;;;;;;;21.63;80.49;99445.54;1627761;86;22028;-58
2022/08/03 03:39:55;;;;;;;17.45;8.65;;;;;;;21.67;80.44;99450.95;1648955;85;21634;-58
2022/08/03 03:42:22;;;;;;;12.68;8.05;;;;;;;21.69;80.56;99447.64;1645009;85;21436;-58
2022/08/03 03:44:48;;;;;;;10.60;7.08;;;;;;;21.78;79.75;99448.62;1641273;86;21013;-58
2022/08/03 03:47:15;;;;;;;14.43;7.92;;;;;;;21.80;79.98;99449.33;1645055;85;21041;-58
2022/08/03 03:49:42;;;;;;;11.28;7.97;;;;;;;21.81;79.57;99458.20;1649303;86;21901;-59
2022/08/03 03:52:09;;;;;;;13.80;8.05;;;;;;;21.81;79.57;99458.20;1640770;85;21188;-59
2022/08/03 03:54:43;;;;;;;12.75;8.20;;;;;;;21.77;80.12;99461.17;1650787;86;21455;-58
2022/08/03 03:57:10;;;;;;;10.80;8.00;;;;;;;21.76;80.36;99468.84;1668039;84;21634;-59
2022/08/03 03:59:41;;;;;;;13.48;7.92;;;;;;;21.79;80.19;99459.67;1676117;84;21455;-59
2022/08/03 04:02:08;;;;;;;11.70;7.97;;;;;;;21.78;80.16;99458.00;1676384;84;21795;-58
2022/08/03 04:13:03;;;;;;;8.20;7.40;;;;;;;21.83;79.41;99469.13;1679693;84;20965;-58
2022/08/03 04:15:30;;;;;;;14.60;7.87;;;;;;;21.83;79.41;99469.13;1678727;84;22047;-58
2022/08/03 04:17:57;;;;;;;8.13;7.40;;;;;;;21.94;79.15;99466.30;1634248;84;21045;-59
2022/08/03 04:20:27;;;;;;;13.20;8.05;;;;;;;21.97;78.88;99466.50;1647804;84;21542;-59
2022/08/03 04:22:53;;;;;;;10.35;8.28;;;;;;;21.98;79.15;99465.49;1671898;84;21401;-59
2022/08/03 04:25:20;;;;;;;8.23;7.45;;;;;;;22.05;79.04;99459.92;1679430;84;21478;-59
2022/08/03 04:27:47;;;;;;;11.20;7.65;;;;;;;22.03;79.19;99461.90;1678668;83;21745;-59
2022/08/03 04:30:13;;;;;;;8.65;7.78;;;;;;;22.09;78.79;99456.47;1624688;84;21596;-59
2022/08/03 04:32:40;;;;;;;8.05;7.00;;;;;;;22.12;78.48;99457.02;1683930;83;21058;-59
2022/08/03 04:35:08;;;;;;;8.98;8.10;;;;;;;22.10;78.32;99465.70;1679070;83;21511;-58
2022/08/03 04:37:42;;;;;;;10.05;8.28;;;;;;;22.14;78.07;99461.73;1674845;84;21448;-59
2022/08/03 04:40:15;;;;;;;9.30;8.08;;;;;;;22.20;77.72;99462.99;1677456;83;21984;-59
2022/08/03 04:42:41;;;;;;;8.60;7.75;;;;;;;22.15;77.44;99467.92;1675690;83;21578;-59
2022/08/03 04:45:13;;;;;;;8.55;7.72;;;;;;;22.11;77.69;99467.40;1673150;84;21432;-59
2022/08/03 04:47:39;;;;;;;11.48;8.68;;;;;;;22.10;77.85;99469.71;1681702;84;21562;-58
2022/08/03 04:50:06;;;;;;;9.33;8.53;;;;;;;22.12;78.21;99475.77;1674838;84;20983;-58
2022/08/03 04:52:33;;;;;;;12.28;8.65;;;;;;;22.12;78.21;99475.77;1672800;83;21923;-58
2022/08/03 04:55:00;;;;;;;10.75;9.10;;;;;;;22.13;78.14;99470.77;1673018;84;20983;-58
2022/08/03 04:57:27;;;;;;;10.05;8.58;;;;;;;22.17;78.09;99478.02;1678428;84;21606;-59
2022/08/03 04:59:55;;;;;;;13.95;9.13;;;;;;;22.24;77.85;99475.59;1685645;83;21454;-59
2022/08/03 05:02:22;;;;;;;9.35;8.50;;;;;;;22.36;77.43;99469.13;1684006;83;21400;-59
2022/08/03 05:04:49;;;;;;;11.78;8.55;;;;;;;22.36;77.43;99469.13;1677316;83;22115;-59
2022/08/03 05:07:16;;;;;;;9.70;8.38;;;;;;;22.40;76.95;99461.14;1677614;84;21499;-59
2022/08/03 05:09:45;;;;;;;9.45;8.38;;;;;;;22.39;77.32;99459.44;1673545;84;21517;-59
2022/08/03 05:12:11;;;;;;;10.28;8.50;;;;;;;22.45;76.92;99468.26;1677100;83;21534;-59
2022/08/03 05:14:38;;;;;;;8.68;7.60;;;;;;;22.48;76.94;99466.60;1676260;83;21521;-59
2022/08/03 05:17:05;;;;;;;10.35;8.40;;;;;;;22.64;76.63;99465.13;1679209;84;21559;-59
2022/08/03 05:19:31;;;;;;;13.43;8.50;;;;;;;22.72;76.12;99462.58;1674660;83;21448;-59
2022/08/03 05:21:58;;;;;;;12.00;8.58;;;;;;;22.67;76.25;99459.48;1680159;84;21034;-59
2022/08/03 05:24:24;;;;;;;8.28;7.58;;;;;;;22.68;76.56;99466.05;1672773;83;21073;-59
2022/08/03 05:28:37;;;;;;;9.90;8.00;;;;;;;22.37;79.45;99473.98;1783269;78;23130;-58
2022/08/03 05:31:04;;;;;;;12.75;7.78;;;;;;;22.91;76.65;99467.83;1745249;81;21136;-61
2022/08/03 05:33:30;;;;;;;8.13;7.33;;;;;;;22.90;76.62;99471.48;1741217;80;21801;-62
2022/08/03 05:35:58;;;;;;;11.43;7.05;;;;;;;22.87;76.94;99461.59;1747477;80;21507;-58
2022/08/03 05:38:26;;;;;;;15.00;7.33;;;;;;;22.91;77.42;99466.49;1748209;80;21043;-58
2022/08/03 05:40:52;;;;;;;9.57;7.03;;;;;;;22.93;77.09;99463.66;1739478;80;21404;-59
2022/08/03 05:43:19;;;;;;;10.00;6.72;;;;;;;22.95;76.75;99464.36;1745308;80;20978;-59
2022/08/03 05:45:45;;;;;;;10.00;7.45;;;;;;;23.05;76.54;99466.50;1736446;80;21834;-58
2022/08/03 05:48:12;;;;;;;10.35;7.42;;;;;;;23.03;76.84;99471.65;1747791;80;21567;-59
2022/08/03 05:50:38;;;;;;;8.58;7.05;;;;;;;23.10;76.22;99468.25;1744710;81;21600;-59
2022/08/03 05:53:05;;;;;;;9.60;7.05;;;;;;;23.01;75.95;99466.94;1736214;80;21629;-59
2022/08/03 05:55:32;;;;;;;9.40;6.83;;;;;;;23.23;76.01;99479.12;1744225;80;21562;-58
2022/08/03 05:57:58;;;;;;;11.60;7.67;;;;;;;23.08;75.49;99475.59;1744618;80;21831;-58
2022/08/03 06:00:25;;;;;;;9.58;6.87;;;;;;;22.94;76.25;99478.27;1754175;80;21616;-58
2022/08/03 06:02:51;;;;;;;10.75;6.90;;;;;;;22.92;76.13;99482.94;1744443;80;21517;-59
2022/08/03 06:05:18;;;;;;;7.80;7.20;;;;;;;22.92;76.32;99492.31;1742318;80;21065;-58
2022/08/03 06:07:45;;;;;;;9.73;7.72;;;;;;;22.99;75.97;99490.37;1750347;80;21511;-61
2022/08/03 06:10:12;;;;;;;7.85;7.20;;;;;;;23.01;75.51;99497.77;1750424;80;21876;-59
2022/08/03 06:12:40;;;;;;;12.65;8.60;;;;;;;22.99;75.27;99497.91;1743758;80;21539;-60
2022/08/03 06:15:08;;;;;;;10.53;7.72;;;;;;;22.99;75.29;99502.44;1758786;80;21645;-59
2022/08/03 06:17:46;;;;;;;10.30;7.58;;;;;;;22.94;75.44;99503.73;1745989;80;21425;-59
2022/08/03 06:20:12;;;;;;;11.63;6.67;;;;;;;23.04;75.33;99506.39;1731632;80;21537;-59
2022/08/03 06:22:38;;;;;;;8.15;6.90;;;;;;;;;;1748625;80;21528;-59
2022/08/03 06:25:06;;;;;;;8.05;7.25;;;;;;;23.16;75.28;99500.32;1744284;80;21425;-59
2022/08/03 06:27:33;;;;;;;11.75;7.25;;;;;;;23.26;75.16;99504.28;1733004;80;21486;-60
2022/08/03 06:30:00;;;;;;;14.13;7.20;;;;;;;23.44;75.01;99498.95;1738177;80;21472;-61
2022/08/03 06:32:26;;;;;;;12.10;7.80;;;;;;;23.63;74.16;99481.86;1733774;81;21570;-60
2022/08/03 06:34:53;;;;;;;8.78;7.80;;;;;;;23.64;74.10;99483.53;1722915;80;21889;-60
2022/08/03 06:37:20;;;;;;;9.70;6.67;;;;;;;23.73;73.84;99485.80;1736246;80;21456;-60
2022/08/03 06:39:46;;;;;;;10.10;7.40;;;;;;;23.76;73.48;99485.00;1733328;81;21495;-59
2022/08/03 06:42:13;;;;;;;8.40;7.47;;;;;;;23.75;73.34;99475.25;1732530;81;21609;-60
2022/08/03 06:44:39;;;;;;;11.90;7.47;;;;;;;23.79;72.84;99479.84;1735460;80;21693;-60
2022/08/03 06:47:06;;;;;;;13.15;7.50;;;;;;;24.09;71.94;99468.69;1731563;80;21425;-60
2022/08/03 06:49:32;;;;;;;10.43;6.92;;;;;;;24.00;72.26;99475.00;1734263;80;21546;-60
2022/08/03 06:51:59;;;;;;;8.38;7.53;;;;;;;24.20;71.31;99470.77;1729748;80;21476;-60
2022/08/03 06:54:26;;;;;;;10.88;7.47;;;;;;;24.15;71.18;99465.88;1736097;79;21527;-60
2022/08/03 06:56:53;;;;;;;11.17;7.17;;;;;;;24.18;70.83;99470.08;1733023;82;21597;-59
2022/08/03 06:59:19;;;;;;;9.60;7.80;;;;;;;24.19;70.22;99465.06;1738322;80;22198;-60
2022/08/03 07:01:46;;;;;;;10.20;7.50;;;;;;;24.22;70.36;99470.97;1721768;80;21590;-59
2022/08/03 07:04:12;;;;;;;8.95;7.33;;;;;;;24.31;70.80;99472.35;1738153;80;21559;-59
2022/08/03 07:06:39;;;;;;;7.62;6.80;;;;;;;24.33;70.32;99469.84;1691739;82;21490;-59
2022/08/03 07:09:06;;;;;;;10.98;7.67;;;;;;;24.32;70.64;99483.42;1691627;82;21443;-60
2022/08/03 07:11:32;;;;;;;17.47;6.87;;;;;;;24.56;69.35;99476.05;1699314;83;21933;-59
2022/08/03 07:13:59;;;;;;;10.17;7.23;;;;;;;24.16;70.84;99491.72;1701495;82;21025;-60
2022/08/03 07:16:26;;;;;;;14.33;7.05;;;;;;;24.19;71.93;99492.77;1691857;82;21502;-60
2022/08/03 07:18:53;;;;;;;13.58;7.90;;;;;;;24.26;71.62;99493.83;1677433;82;21453;-61
2022/08/03 07:21:19;;;;;;;10.60;6.92;;;;;;;24.39;71.29;99496.09;1696335;83;21456;-59
2022/08/03 07:23:46;;;;;;;16.23;7.50;;;;;;;24.54;70.93;99487.46;1735792;80;21695;-60
2022/08/03 07:26:12;;;;;;;15.83;7.17;;;;;;;24.69;70.29;99483.17;1725060;80;21555;-60
2022/08/03 07:28:39;;;;;;;11.57;7.28;;;;;;;24.90;69.93;99485.95;1736978;80;21506;-61
2022/08/03 07:31:06;;;;;;;7.60;6.72;;;;;;;25.01;69.90;99484.31;1741731;80;21488;-61
2022/08/03 07:33:33;;;;;;;;;;;;;;;25.11;68.44;99478.31;1741752;80;20944;-59
2022/08/03 07:36:00;;;;;;;10.70;6.60;;;;;;;25.24;67.93;99469.30;1743982;80;22069;-60
2022/08/03 07:38:26;;;;;;;9.63;6.83;;;;;;;25.26;68.29;99478.56;1746869;80;21496;-61
2022/08/03 07:40:53;;;;;;;14.53;7.47;;;;;;;25.47;68.37;99485.30;1740746;80;21457;-61
2022/08/03 07:43:20;;;;;;;10.90;6.83;;;;;;;25.57;68.01;99480.11;1751094;80;21424;-59
2022/08/03 07:45:46;;;;;;;7.97;6.45;;;;;;;25.53;66.61;99486.01;1741844;80;21615;-60
2022/08/03 07:48:13;;;;;;;9.18;6.97;;;;;;;25.41;66.59;99485.46;1676242;82;22132;-60
2022/08/03 07:50:39;;;;;;;7.78;6.85;;;;;;;25.31;66.04;99482.09;1684944;83;21529;-60
2022/08/03 07:53:06;;;;;;;6.85;6.20;;;;;;;25.23;65.97;99491.81;1699221;82;20983;-60
2022/08/03 07:55:33;;;;;;;9.27;6.43;;;;;;;25.43;65.34;99492.89;1704120;82;21692;-61
2022/08/03 07:58:10;;;;;;;7.97;6.58;;;;;;;25.27;65.73;99487.47;1697792;82;21927;-61
2022/08/03 08:00:38;;;;;;;8.10;6.10;;;;;;;25.36;65.83;99491.86;1704055;82;21819;-60
2022/08/03 08:03:04;;;;;;;10.10;7.15;;;;;;;25.45;65.80;99492.22;1703238;82;21492;-60
2022/08/03 08:05:31;;;;;;;10.95;6.72;;;;;;;25.67;65.61;99492.58;1685567;83;21601;-60
2022/08/03 08:07:59;;;;;;;7.70;6.55;;;;;;;25.99;64.72;99489.94;1709657;82;21530;-61
2022/08/03 08:10:26;;;;;;;7.10;6.40;;;;;;;25.89;63.69;99482.48;1696390;82;21655;-60
2022/08/03 08:12:53;;;;;;;10.38;6.95;;;;;;;25.96;64.45;99487.58;1709104;82;21862;-60
2022/08/03 08:15:19;;;;;;;7.65;6.85;;;;;;;25.99;64.10;99483.21;1679840;83;21138;-60
2022/08/03 08:18:08;;;;;;;8.68;7.22;;;;;;;26.10;64.14;99483.34;1686207;83;21824;-60
2022/08/03 08:20:37;;;;;;;7.92;6.60;;;;;;;26.17;63.67;99487.56;1619693;86;21467;-60
2022/08/03 08:23:06;;;;;;;11.22;7.15;;;;;;;26.26;62.73;99482.98;1675081;83;21444;-60
2022/08/03 08:25:34;;;;;;;8.15;6.92;;;;;;;26.23;63.11;99493.09;1678747;83;21840;-61
2022/08/03 08:28:02;;;;;;;6.97;6.28;;;;;;;26.16;62.16;99485.87;1674606;83;21534;-62
2022/08/03 08:30:29;;;;;;;7.33;6.62;;;;;;;26.11;62.21;99486.39;1656367;84;21637;-60
2022/08/03 08:32:56;;;;;;;7.22;6.62;;;;;;;26.09;62.75;99496.98;1677737;83;21461;-61
2022/08/03 08:35:23;;;;;;;;;;;;;;;26.14;62.71;99491.94;1640037;84;21602;-60
2022/08/03 08:37:50;;;;;;;8.98;7.08;;;;;;;26.17;62.60;99492.44;1646077;86;21770;-60
2022/08/03 08:40:19;;;;;;;14.30;7.50;;;;;;;26.33;62.45;99484.82;1629103;85;21447;-59
2022/08/03 08:42:46;;;;;;;10.98;6.75;;;;;;;26.22;61.82;99487.91;1677194;83;21002;-60
2022/08/03 08:45:14;;;;;;;10.55;7.28;;;;;;;26.23;61.60;99492.27;1684170;83;21495;-61
2022/08/03 08:47:45;;;;;;;10.00;6.60;;;;;;;26.32;61.04;99491.76;1686184;83;21574;-61
2022/08/03 08:50:11;;;;;;;6.53;6.03;;;;;;;26.39;61.14;99486.86;1684025;83;21743;-61
2022/08/03 08:52:40;;;;;;;7.43;6.40;;;;;;;26.47;62.00;99486.51;1685317;83;21625;-60
2022/08/03 08:55:09;;;;;;;11.08;6.70;;;;;;;26.57;61.82;99483.93;1683743;83;21435;-60
2022/08/03 08:57:43;;;;;;;8.15;6.17;;;;;;;26.71;61.45;99493.69;1680580;84;20978;-60
2022/08/03 09:00:14;;;;;;;9.40;6.90;;;;;;;26.86;60.70;99489.77;1649049;85;21077;-59
2022/08/03 09:02:42;;;;;;;7.37;6.67;;;;;;;27.05;60.17;99487.16;1650105;85;22054;-63
2022/08/03 09:05:17;;;;;;;8.55;6.35;;;;;;;27.30;59.61;99479.30;1660780;85;21628;-59
2022/08/03 09:07:45;;;;;;;7.95;7.10;;;;;;;27.58;58.99;99482.33;1652163;85;21029;-60
2022/08/03 09:10:20;;;;;;;11.60;6.45;;;;;;;27.86;58.41;99474.17;1631027;86;21518;-60
2022/08/03 09:12:50;;;;;;;10.50;6.72;;;;;;;28.19;57.44;99469.34;1666156;84;21414;-58
2022/08/03 09:15:26;;;;;;;7.03;6.33;;;;;;;28.49;55.50;99463.45;1645754;86;21810;-59
2022/08/03 09:17:56;;;;;;;6.97;6.30;;;;;;;28.49;55.34;99460.75;1687232;83;21558;-59
2022/08/03 09:20:25;;;;;;;10.38;6.28;;;;;;;28.50;55.54;99457.52;1684090;83;21532;-59
2022/08/03 09:22:56;;;;;;;14.53;6.28;;;;;;;28.63;55.55;99460.47;1681645;84;21543;-58
2022/08/03 09:25:35;;;;;;;9.38;6.15;;;;;;;28.70;55.33;99464.08;1681787;83;21547;-60
2022/08/03 09:28:12;;;;;;;10.98;6.17;;;;;;;28.83;55.21;99463.42;1677948;83;21913;-59
2022/08/03 09:30:41;;;;;;;8.90;5.65;;;;;;;28.79;55.17;99464.83;1682965;83;21590;-59
2022/08/03 09:33:16;;;;;;;8.43;6.20;;;;;;;28.98;55.16;99462.57;1645844;84;21472;-60
2022/08/03 09:35:45;;;;;;;15.48;6.78;;;;;;;29.20;53.57;99454.85;1682026;83;21498;-60
2022/08/03 09:38:17;;;;;;;8.33;5.90;;;;;;;29.36;52.79;99440.75;1685867;83;21641;-60
2022/08/03 09:40:45;;;;;;;6.90;6.20;;;;;;;29.59;52.54;99441.91;1680903;83;21809;-60
2022/08/03 09:43:11;;;;;;;9.35;6.90;;;;;;;29.72;51.97;99444.73;1657468;84;25954;-62
2022/08/03 09:45:39;;;;;;;7.00;6.35;;;;;;;29.63;51.86;99444.54;1687708;83;21530;-60
2022/08/03 09:48:26;;;;;;;14.20;6.67;;;;;;;29.66;51.30;99438.75;1684528;83;20978;-59
2022/08/03 09:50:55;;;;;;;11.18;6.35;;;;;;;29.46;51.97;99454.30;1680708;83;21551;-60
2022/08/03 09:53:21;;;;;;;6.85;6.22;;;;;;;29.60;51.79;99444.95;1685039;83;22041;-60
2022/08/03 09:55:53;;;;;;;8.30;6.80;;;;;;;29.40;51.50;99443.39;1681353;83;21887;-60
2022/08/03 09:58:20;;;;;;;7.40;6.70;;;;;;;29.85;50.71;99444.87;1686116;83;21494;-60
2022/08/03 10:01:02;;;;;;;;;;;;;;;29.81;50.76;99444.95;1686989;83;21548;-59
2022/08/03 10:03:34;;;;;;;16.23;7.05;;;;;;;29.74;50.74;99448.11;1682945;83;20499;-60
2022/08/03 10:06:21;;;;;;;6.90;6.33;;;;;;;29.66;50.78;99451.77;1683059;83;21935;-60
2022/08/03 10:09:13;;;;;;;10.10;6.90;;;;;;;30.04;49.46;99445.23;1685088;83;21428;-60
2022/08/03 10:11:40;;;;;;;6.85;6.17;;;;;;;30.00;50.00;99448.02;1680216;83;21530;-61
2022/08/03 10:14:17;;;;;;;6.87;5.83;;;;;;;30.04;50.28;99447.95;1682611;83;21470;-61
2022/08/03 10:16:39;;;;;;;20.57;7.35;;;;;;;29.80;50.58;99458.69;1689510;83;21450;-61
2022/08/03 10:19:07;;;;;;;9.50;6.90;;;;;;;29.85;51.07;99461.66;1683373;83;21877;-62
2022/08/03 10:21:37;;;;;;;6.85;6.05;;;;;;;29.94;51.01;99455.59;1681696;83;21574;-61
2022/08/03 10:24:05;;;;;;;9.33;6.20;;;;;;;29.89;50.60;99457.02;1677751;84;21538;-61
2022/08/03 10:26:34;;;;;;;12.33;6.15;;;;;;;29.88;50.92;99464.81;1682803;83;21833;-62
2022/08/03 10:29:07;;;;;;;7.35;6.75;;;;;;;29.73;50.90;99466.77;1681848;84;21511;-62
2022/08/03 10:31:38;;;;;;;6.47;5.95;;;;;;;29.60;51.24;99456.61;1681953;84;21866;-64
2022/08/03 10:34:17;;;;;;;9.15;6.62;;;;;;;29.40;51.47;99466.41;1682503;83;21565;-60
2022/08/03 10:36:44;;;;;;;7.92;5.90;;;;;;;29.12;52.02;99476.08;1675430;83;21420;-61
2022/08/03 10:39:11;;;;;;;8.83;6.08;;;;;;;28.89;52.70;99477.53;1681125;83;21622;-60
2022/08/03 10:41:41;;;;;;;14.03;5.95;;;;;;;28.57;53.91;99474.72;1682077;83;21570;-61
2022/08/03 10:44:15;;;;;;;6.37;5.78;;;;;;;28.39;55.29;99473.72;1681203;83;21956;-61
2022/08/03 10:46:43;;;;;;;9.20;6.03;;;;;;;28.28;55.68;99475.00;1684530;83;21419;-62
2022/08/03 10:49:14;;;;;;;9.55;6.28;;;;;;;28.38;55.64;99470.67;1690729;83;21534;-62
2022/08/03 10:51:43;;;;;;;6.12;5.62;;;;;;;28.43;56.13;99471.48;1681219;83;21487;-63
2022/08/03 10:57:54;;;;;;;8.03;6.22;;;;;;;28.29;56.56;99472.64;1682414;83;21853;-63
2022/08/03 11:00:22;;;;;;;10.10;5.58;;;;;;;28.39;56.61;99475.56;1682997;83;21505;-63
2022/08/03 11:03:09;;;;;;;8.10;5.97;;;;;;;28.35;56.64;99469.19;1673863;83;21538;-63
2022/08/03 11:05:42;;;;;;;7.62;6.00;;;;;;;28.51;56.43;99471.38;1687099;83;21531;-64
2022/08/03 11:08:24;;;;;;;7.75;6.05;;;;;;;28.41;57.34;99480.30;1689869;83;21545;-62
2022/08/03 11:10:55;;;;;;;6.95;5.95;;;;;;;28.59;57.60;99480.77;1684717;83;22130;-64
2022/08/03 11:13:25;;;;;;;12.05;6.25;;;;;;;28.68;57.07;99476.13;1680047;83;21373;-60
2022/08/03 11:15:54;;;;;;;7.75;6.03;;;;;;;29.16;56.67;99462.17;1689420;83;21572;-61
2022/08/03 11:18:20;;;;;;;6.80;5.92;;;;;;;29.67;55.52;99458.88;1683293;83;21581;-60
2022/08/03 11:20:53;;;;;;;8.40;5.37;;;;;;;29.93;54.19;99446.60;1685887;83;21443;-61
2022/08/03 11:23:41;;;;;;;8.80;5.80;;;;;;;30.16;52.33;99436.89;1687263;83;21832;-60
2022/08/03 11:26:11;;;;;;;6.53;5.95;;;;;;;29.98;52.45;99428.41;1657786;83;21444;-60
2022/08/03 11:28:40;;;;;;;6.42;5.58;;;;;;;30.04;52.46;99423.55;1684156;83;21577;-60
2022/08/03 11:31:28;;;;;;;9.15;5.78;;;;;;;30.17;52.56;99423.64;1685265;83;21559;-60
2022/08/03 11:34:06;;;;;;;8.03;5.60;;;;;;;30.28;51.95;99419.02;1667633;83;22006;-59
2022/08/03 11:37:18;;;;;;;8.53;5.35;;;;;;;30.26;51.02;99414.31;1681571;83;21912;-59
2022/08/03 11:39:47;;;;;;;6.65;5.97;;;;;;;30.35;50.74;99405.55;1681507;83;21471;-59
2022/08/03 11:42:28;;;;;;;6.10;5.50;;;;;;;30.56;50.58;99408.68;1686885;83;21559;-60
2022/08/03 11:44:56;;;;;;;8.53;5.42;;;;;;;30.84;50.44;99400.98;1679152;83;21637;-59
2022/08/03 11:47:25;;;;;;;6.47;5.65;;;;;;;30.98;49.79;99395.09;1689415;83;21580;-59
2022/08/03 11:49:59;;;;;;;7.10;5.92;;;;;;;31.05;49.58;99408.16;1681326;83;23140;-59
2022/08/03 11:52:25;;;;;;;7.05;5.55;;;;;;;31.11;49.88;99411.41;1681736;83;21594;-59
2022/08/03 11:54:52;;;;;;;6.75;5.37;;;;;;;31.18;49.96;99407.37;1692667;83;21435;-59
2022/08/03 11:57:31;;;;;;;8.98;4.75;;;;;;;31.27;49.46;99416.14;1682071;83;21523;-59